createdAt,value
2018-12-13T00:02:09.403Z,5.27
2018-12-13T00:04:37.023Z,5.40
2018-12-13T00:07:04.660Z,3.30
2018-12-13T00:09:32.423Z,5.10
2018-12-13T00:12:00.019Z,4.13
2018-12-13T00:14:27.633Z,5.00
2018-12-13T00:16:55.339Z,4.53
2018-12-13T00:19:22.954Z,4.00
2018-12-13T00:21:50.689Z,3.80
2018-12-13T00:24:18.336Z,4.03
2018-12-13T00:26:45.927Z,3.83
2018-12-13T00:29:13.526Z,4.33
2018-12-13T00:31:41.133Z,4.60
2018-12-13T00:34:08.708Z,4.37
2018-12-13T00:36:39.665Z,4.93
2018-12-13T00:39:06.687Z,4.17
2018-12-13T00:41:34.247Z,4.50
2018-12-13T00:44:01.844Z,3.87
2018-12-13T00:46:29.507Z,3.90
2018-12-13T00:48:57.160Z,3.93
2018-12-13T00:51:24.760Z,3.80
2018-12-13T00:53:52.418Z,4.33
2018-12-13T00:56:20.039Z,4.07
2018-12-13T00:58:47.651Z,3.77
2018-12-13T01:01:15.282Z,3.87
2018-12-13T01:03:42.935Z,4.87
2018-12-13T01:06:10.563Z,4.50
2018-12-13T01:08:38.172Z,4.10
2018-12-13T01:11:05.775Z,3.97
2018-12-13T01:13:33.425Z,3.77
2018-12-13T01:16:01.027Z,4.17
2018-12-13T01:18:28.711Z,4.40
2018-12-13T01:20:57.047Z,4.23
2018-12-13T01:23:24.687Z,4.27
2018-12-13T01:25:52.356Z,4.27
2018-12-13T01:28:19.971Z,3.93
2018-12-13T01:30:47.711Z,3.83
2018-12-13T01:33:15.391Z,3.70
2018-12-13T01:35:43.018Z,4.50
2018-12-13T01:38:10.656Z,3.30
2018-12-13T01:40:38.312Z,4.47
2018-12-13T01:43:06.363Z,3.80
2018-12-13T01:45:34.325Z,3.37
2018-12-13T01:48:02.555Z,3.80
2018-12-13T01:50:30.395Z,4.03
2018-12-13T01:52:58.382Z,4.70
2018-12-13T01:55:27.298Z,4.10
2018-12-13T01:57:55.360Z,3.70
2018-12-13T02:00:23.407Z,4.97
2018-12-13T02:02:51.537Z,3.93
2018-12-13T02:05:19.600Z,4.87
2018-12-13T02:07:47.738Z,3.67
2018-12-13T02:10:15.395Z,3.37
2018-12-13T02:12:44.276Z,4.00
2018-12-13T02:15:12.330Z,4.00
2018-12-13T02:17:40.345Z,3.73
2018-12-13T02:20:07.930Z,3.43
2018-12-13T02:22:35.600Z,3.77
2018-12-13T02:25:03.240Z,3.80
2018-12-13T02:27:30.879Z,4.23
2018-12-13T02:29:58.499Z,4.63
2018-12-13T02:32:26.166Z,4.47
2018-12-13T02:34:53.798Z,4.20
2018-12-13T02:37:21.542Z,2.97
2018-12-13T02:39:49.129Z,3.40
2018-12-13T02:42:16.702Z,3.10
2018-12-13T02:44:44.464Z,3.60
2018-12-13T02:47:12.069Z,3.67
2018-12-13T02:49:39.666Z,3.00
2018-12-13T02:52:07.281Z,3.37
2018-12-13T02:54:34.896Z,3.50
2018-12-13T02:57:02.482Z,3.10
2018-12-13T02:59:30.159Z,3.67
2018-12-13T03:01:57.751Z,2.93
2018-12-13T03:04:25.369Z,3.23
2018-12-13T03:06:53.013Z,3.33
2018-12-13T03:09:20.650Z,3.17
2018-12-13T03:11:48.285Z,3.00
2018-12-13T03:14:15.900Z,3.60
2018-12-13T03:16:43.518Z,2.77
2018-12-13T03:19:11.123Z,3.30
2018-12-13T03:21:38.840Z,2.93
2018-12-13T03:24:06.499Z,3.23
2018-12-13T03:26:34.101Z,3.33
2018-12-13T03:29:01.683Z,3.20
2018-12-13T03:31:29.320Z,2.50
2018-12-13T03:33:57.115Z,2.80
2018-12-13T03:36:24.771Z,2.43
2018-12-13T03:38:52.392Z,3.00
2018-12-13T03:41:20.114Z,2.60
2018-12-13T03:43:47.679Z,3.07
2018-12-13T03:46:18.978Z,3.67
2018-12-13T03:48:46.669Z,3.00
2018-12-13T03:51:14.276Z,3.37
2018-12-13T03:53:41.890Z,3.20
2018-12-13T03:56:09.578Z,3.53
2018-12-13T03:58:37.336Z,2.90
2018-12-13T04:01:04.967Z,2.90
2018-12-13T04:03:32.644Z,2.87
2018-12-13T04:06:00.300Z,2.97
2018-12-13T04:08:27.897Z,2.77
2018-12-13T04:10:55.547Z,2.80
2018-12-13T04:13:23.225Z,3.30
2018-12-13T04:15:50.877Z,2.90
2018-12-13T04:18:18.648Z,2.93
2018-12-13T04:20:46.253Z,2.83
2018-12-13T04:23:13.849Z,2.80
2018-12-13T04:25:41.489Z,2.97
2018-12-13T04:28:09.175Z,2.60
2018-12-13T04:30:36.886Z,3.10
2018-12-13T04:33:04.505Z,2.70
2018-12-13T04:35:32.176Z,3.03
2018-12-13T04:37:59.770Z,2.23
2018-12-13T04:40:27.443Z,3.00
2018-12-13T04:42:55.166Z,3.30
2018-12-13T04:45:22.807Z,2.70
2018-12-13T04:47:50.419Z,2.80
2018-12-13T04:50:18.125Z,2.70
2018-12-13T04:52:45.827Z,3.00
2018-12-13T04:55:13.669Z,2.50
2018-12-13T04:57:41.310Z,2.67
2018-12-13T05:00:08.938Z,2.20
2018-12-13T05:02:36.588Z,2.43
2018-12-13T05:05:04.364Z,2.47
2018-12-13T05:07:31.975Z,3.10
2018-12-13T05:09:59.577Z,2.30
2018-12-13T05:12:27.216Z,2.80
2018-12-13T05:14:54.839Z,2.60
2018-12-13T05:17:23.548Z,2.67
2018-12-13T05:19:51.402Z,2.17
2018-12-13T05:22:19.118Z,2.90
2018-12-13T05:24:46.851Z,3.13
2018-12-13T05:27:14.439Z,2.63
2018-12-13T05:29:42.183Z,2.80
2018-12-13T05:32:09.872Z,3.07
2018-12-13T05:37:31.103Z,2.80
2018-12-13T05:39:58.813Z,2.63
2018-12-13T05:42:26.429Z,2.37
2018-12-13T05:44:54.045Z,2.60
2018-12-13T05:47:21.916Z,2.30
2018-12-13T05:49:53.120Z,2.80
2018-12-13T05:52:20.979Z,3.40
2018-12-13T05:54:48.674Z,2.50
2018-12-13T05:57:16.311Z,2.60
2018-12-13T05:59:43.921Z,2.70
2018-12-13T06:02:11.509Z,3.00
2018-12-13T06:04:39.113Z,2.57
2018-12-13T06:07:07.722Z,2.67
2018-12-13T06:09:35.424Z,2.33
2018-12-13T06:12:03.161Z,2.30
2018-12-13T06:14:30.873Z,2.40
2018-12-13T06:16:58.472Z,2.50
2018-12-13T06:19:26.857Z,2.47
2018-12-13T06:21:54.625Z,2.27
2018-12-13T06:24:22.364Z,2.37
2018-12-13T06:26:49.965Z,2.07
2018-12-13T06:29:17.584Z,2.20
2018-12-13T06:31:46.491Z,2.43
2018-12-13T06:34:14.335Z,2.00
2018-12-13T06:36:41.964Z,2.10
2018-12-13T06:39:09.577Z,2.90
2018-12-13T06:41:37.202Z,2.50
2018-12-13T06:45:27.781Z,2.70
2018-12-13T06:47:55.548Z,3.10
2018-12-13T06:50:23.196Z,2.50
2018-12-13T06:52:53.856Z,2.57
2018-12-13T06:55:21.483Z,2.70
2018-12-13T06:57:49.108Z,2.40
2018-12-13T07:00:18.018Z,2.27
2018-12-13T07:02:45.590Z,2.20
2018-12-13T07:05:13.344Z,2.50
2018-12-13T07:07:42.185Z,1.90
2018-12-13T07:10:09.846Z,2.47
2018-12-13T07:12:37.446Z,2.83
2018-12-13T07:15:06.470Z,2.73
2018-12-13T07:17:34.034Z,2.47
2018-12-13T07:20:01.890Z,2.70
2018-12-13T07:22:29.497Z,1.90
2018-12-13T07:24:57.049Z,2.73
2018-12-13T07:27:24.675Z,3.20
2018-12-13T07:29:52.269Z,4.40
2018-12-13T07:32:19.821Z,2.53
2018-12-13T07:34:47.507Z,3.37
2018-12-13T07:37:15.107Z,2.43
2018-12-13T07:39:42.724Z,3.70
2018-12-13T07:42:10.322Z,2.90
2018-12-13T07:44:37.899Z,3.40
2018-12-13T07:47:05.503Z,2.40
2018-12-13T07:49:33.089Z,2.23
2018-12-13T07:52:00.739Z,2.67
2018-12-13T07:54:28.346Z,2.67
2018-12-13T07:56:56.253Z,2.77
2018-12-13T07:59:23.980Z,2.50
2018-12-13T08:01:51.610Z,3.10
2018-12-13T08:04:19.200Z,2.53
2018-12-13T08:06:46.819Z,2.70
2018-12-13T08:09:14.388Z,2.90
2018-12-13T08:11:42.052Z,2.80
2018-12-13T08:14:09.628Z,3.60
2018-12-13T08:16:37.194Z,2.30
2018-12-13T08:19:04.870Z,2.33
2018-12-13T08:21:33.019Z,2.37
2018-12-13T08:24:00.892Z,2.20
2018-12-13T08:26:28.462Z,2.07
2018-12-13T08:28:56.102Z,2.67
2018-12-13T08:31:23.714Z,2.47
2018-12-13T08:33:51.302Z,2.47
2018-12-13T08:36:18.862Z,2.43
2018-12-13T08:38:46.451Z,1.80
2018-12-13T08:41:14.109Z,1.90
2018-12-13T08:43:41.945Z,2.60
2018-12-13T08:46:09.543Z,2.40
2018-12-13T08:48:37.126Z,2.30
2018-12-13T08:51:04.704Z,2.50
2018-12-13T08:53:32.314Z,3.20
2018-12-13T08:56:00.864Z,2.00
2018-12-13T08:58:28.542Z,1.90
2018-12-13T09:00:56.144Z,1.83
2018-12-13T09:03:23.717Z,2.47
2018-12-13T09:05:51.302Z,2.13
2018-12-13T09:08:18.916Z,2.10
2018-12-13T09:10:46.643Z,2.47
2018-12-13T09:13:14.200Z,1.93
2018-12-13T09:15:41.755Z,1.70
2018-12-13T09:18:09.331Z,2.10
2018-12-13T09:20:36.965Z,2.30
2018-12-13T09:23:04.560Z,1.50
2018-12-13T09:25:32.203Z,2.10
2018-12-13T09:27:59.800Z,1.83
2018-12-13T09:30:27.345Z,2.40
2018-12-13T09:32:54.964Z,2.10
2018-12-13T09:35:22.693Z,2.80
2018-12-13T09:37:50.346Z,2.07
2018-12-13T09:40:17.918Z,1.83
2018-12-13T09:42:45.619Z,1.90
2018-12-13T09:45:13.602Z,1.87
2018-12-13T09:47:41.212Z,2.10
2018-12-13T09:50:09.703Z,2.03
2018-12-13T09:52:37.321Z,2.00
2018-12-13T09:55:05.844Z,2.10
2018-12-13T09:57:35.404Z,1.90
2018-12-13T10:00:03.656Z,1.77
2018-12-13T10:02:31.261Z,1.83
2018-12-13T10:04:58.898Z,2.47
2018-12-13T10:07:26.520Z,2.10
2018-12-13T10:09:54.184Z,1.77
2018-12-13T10:12:21.776Z,1.80
2018-12-13T10:14:49.375Z,1.83
2018-12-13T10:17:16.941Z,2.67
2018-12-13T10:19:44.657Z,2.30
2018-12-13T10:22:12.217Z,1.47
2018-12-13T10:24:39.752Z,1.90
2018-12-13T10:27:07.345Z,2.20
2018-12-13T10:29:34.887Z,1.90
2018-12-13T10:32:03.158Z,1.77
2018-12-13T10:34:30.697Z,1.60
2018-12-13T10:36:58.288Z,2.37
2018-12-13T10:39:25.879Z,1.87
2018-12-13T10:41:53.475Z,2.03
2018-12-13T10:44:36.153Z,1.93
2018-12-13T10:47:04.428Z,1.90
2018-12-13T10:49:32.013Z,1.90
2018-12-13T10:51:59.544Z,1.90
2018-12-13T10:54:27.253Z,2.33
2018-12-13T10:56:54.899Z,1.50
2018-12-13T10:59:22.622Z,2.20
2018-12-13T11:02:00.767Z,1.70
2018-12-13T11:04:28.401Z,2.00
2018-12-13T11:06:56.031Z,2.23
2018-12-13T11:09:23.680Z,1.63
2018-12-13T11:11:51.575Z,1.73
2018-12-13T11:14:19.141Z,2.10
2018-12-13T11:16:46.751Z,2.30
2018-12-13T11:19:14.330Z,2.63
2018-12-13T11:21:41.945Z,1.97
2018-12-13T11:24:09.629Z,2.17
2018-12-13T11:26:37.333Z,2.80
2018-12-13T11:29:41.199Z,1.90
2018-12-13T11:32:08.830Z,2.00
2018-12-13T11:34:37.807Z,2.17
2018-12-13T11:37:05.484Z,2.40
2018-12-13T11:39:33.062Z,1.80
2018-12-13T11:42:00.731Z,2.17
2018-12-13T11:44:28.311Z,2.20
2018-12-13T11:46:55.887Z,2.10
2018-12-13T11:49:23.701Z,1.97
2018-12-13T11:51:51.285Z,2.13
2018-12-13T11:54:56.637Z,2.73
2018-12-13T11:57:24.206Z,2.80
2018-12-13T11:59:51.807Z,2.20
2018-12-13T12:02:23.989Z,2.67
2018-12-13T12:04:49.022Z,2.93
2018-12-13T12:07:16.585Z,2.20
2018-12-13T12:09:44.159Z,2.57
2018-12-13T12:12:11.713Z,2.87
2018-12-13T12:14:39.284Z,2.53
2018-12-13T12:17:06.869Z,2.47
2018-12-13T12:19:34.495Z,3.30
2018-12-13T12:22:02.094Z,2.70
2018-12-13T12:24:29.684Z,2.30
2018-12-13T12:26:57.316Z,3.13
2018-12-13T12:29:24.869Z,1.97
2018-12-13T12:31:52.487Z,2.33
2018-12-13T12:34:20.049Z,2.60
2018-12-13T12:36:47.632Z,2.23
2018-12-13T12:39:18.734Z,2.30
2018-12-13T12:41:46.256Z,3.67
2018-12-13T12:44:13.973Z,2.80
2018-12-13T12:46:41.739Z,2.50
2018-12-13T12:49:09.369Z,1.80
2018-12-13T12:51:37.102Z,2.00
2018-12-13T12:54:04.829Z,2.03
2018-12-13T12:56:32.391Z,1.87
2018-12-13T12:59:00.011Z,2.73
2018-12-13T13:01:27.991Z,2.47
2018-12-13T13:03:56.627Z,2.17
2018-12-13T13:06:24.606Z,2.17
2018-12-13T13:08:52.516Z,2.90
2018-12-13T13:11:20.218Z,2.47
2018-12-13T13:13:47.777Z,2.23
2018-12-13T13:16:15.368Z,2.40
2018-12-13T13:18:43.242Z,2.03
2018-12-13T13:21:11.081Z,2.43
2018-12-13T13:23:38.630Z,2.63
2018-12-13T13:26:06.334Z,2.30
2018-12-13T13:28:33.927Z,1.77
2018-12-13T13:31:01.523Z,2.77
2018-12-13T13:33:29.088Z,2.27
2018-12-13T13:35:56.773Z,3.00
2018-12-13T13:38:24.372Z,2.43
2018-12-13T13:40:52.006Z,2.00
2018-12-13T13:43:19.612Z,1.90
2018-12-13T13:45:47.210Z,2.10
2018-12-13T13:48:14.833Z,2.20
2018-12-13T13:50:42.449Z,2.40
2018-12-13T13:53:10.060Z,2.20
2018-12-13T13:55:37.645Z,2.07
2018-12-13T13:58:05.262Z,3.17
2018-12-13T14:00:32.881Z,2.50
2018-12-13T14:03:00.613Z,2.57
2018-12-13T14:05:28.210Z,2.47
2018-12-13T14:07:55.720Z,3.47
2018-12-13T14:10:23.395Z,2.57
2018-12-13T14:12:50.968Z,2.80
2018-12-13T14:15:18.522Z,2.70
2018-12-13T14:17:46.115Z,2.80
2018-12-13T14:20:13.695Z,2.27
2018-12-13T14:22:41.295Z,3.67
2018-12-13T14:25:08.857Z,2.00
2018-12-13T14:27:36.443Z,2.50
2018-12-13T14:30:05.361Z,2.63
2018-12-13T14:32:32.963Z,2.90
2018-12-13T14:35:00.532Z,2.70
2018-12-13T14:37:28.163Z,2.30
2018-12-13T14:39:55.742Z,2.33
2018-12-13T14:42:23.391Z,2.20
2018-12-13T14:44:51.003Z,2.30
2018-12-13T14:47:18.530Z,2.40
2018-12-13T14:49:46.223Z,2.23
2018-12-13T14:52:13.829Z,2.00
2018-12-13T14:54:41.557Z,2.50
2018-12-13T14:57:09.199Z,2.27
2018-12-13T14:59:36.874Z,2.77
2018-12-13T15:02:04.540Z,1.93
2018-12-13T15:04:32.143Z,2.10
2018-12-13T15:07:01.168Z,2.13
2018-12-13T15:09:30.327Z,2.03
2018-12-13T15:11:59.414Z,2.00
2018-12-13T15:14:28.548Z,2.47
2018-12-13T15:16:57.972Z,1.90
2018-12-13T15:19:27.214Z,1.63
2018-12-13T15:21:56.341Z,2.33
2018-12-13T15:24:25.385Z,2.27
2018-12-13T15:26:54.545Z,2.20
2018-12-13T15:29:23.875Z,2.60
2018-12-13T15:31:59.121Z,2.30
2018-12-13T15:34:21.108Z,2.40
2018-12-13T15:36:48.700Z,2.20
2018-12-13T15:39:16.416Z,2.07
2018-12-13T15:41:44.046Z,2.20
2018-12-13T15:44:11.619Z,1.87
2018-12-13T15:46:39.211Z,1.90
2018-12-13T15:49:06.812Z,1.90
2018-12-13T15:51:35.048Z,2.00
2018-12-13T15:54:02.705Z,2.27
2018-12-13T15:56:30.370Z,2.70
2018-12-13T15:58:57.951Z,2.50
2018-12-13T16:01:28.359Z,2.03
2018-12-13T16:03:58.430Z,2.30
2018-12-13T16:06:26.038Z,2.47
2018-12-13T16:08:53.570Z,2.23
2018-12-13T16:11:21.154Z,2.00
2018-12-13T16:13:50.226Z,2.37
2018-12-13T16:16:19.472Z,1.80
2018-12-13T16:18:48.436Z,2.17
2018-12-13T16:21:17.883Z,2.03
2018-12-13T16:23:46.860Z,2.40
2018-12-13T16:26:15.929Z,2.33
2018-12-13T16:28:45.066Z,1.70
2018-12-13T16:31:14.827Z,1.83
2018-12-13T16:33:42.427Z,2.53
2018-12-13T16:36:09.975Z,2.20
2018-12-13T16:38:37.584Z,1.67
2018-12-13T16:41:05.164Z,1.70
2018-12-13T16:43:33.684Z,1.70
2018-12-13T16:46:01.474Z,2.00
2018-12-13T16:48:29.035Z,1.73
2018-12-13T16:50:56.669Z,1.93
2018-12-13T16:53:24.241Z,2.10
2018-12-13T16:55:51.798Z,1.70
2018-12-13T16:58:19.433Z,1.90
2018-12-13T17:00:47.013Z,2.10
2018-12-13T17:03:25.828Z,1.93
2018-12-13T17:05:53.407Z,1.80
2018-12-13T17:08:21.128Z,1.50
2018-12-13T17:10:48.720Z,1.60
2018-12-13T17:13:16.316Z,1.70
2018-12-13T17:15:43.914Z,1.50
2018-12-13T17:18:11.493Z,1.70
2018-12-13T17:20:39.076Z,2.13
2018-12-13T17:23:06.628Z,1.73
2018-12-13T17:25:34.216Z,1.90
2018-12-13T17:28:01.797Z,2.00
2018-12-13T17:30:29.368Z,1.70
2018-12-13T17:32:57.001Z,1.90
2018-12-13T17:35:24.607Z,1.77
2018-12-13T17:37:52.204Z,2.13
2018-12-13T17:40:23.021Z,2.03
2018-12-13T17:42:49.446Z,1.50
2018-12-13T17:45:17.013Z,1.70
2018-12-13T17:47:44.556Z,1.90
2018-12-13T17:50:12.162Z,1.53
2018-12-13T17:52:39.702Z,1.60
2018-12-13T17:55:07.309Z,1.73
2018-12-13T17:57:34.884Z,1.73
2018-12-13T18:00:02.630Z,1.93
2018-12-13T18:02:30.222Z,2.40
2018-12-13T18:04:57.891Z,3.17
2018-12-13T18:07:25.720Z,2.63
2018-12-13T18:09:53.981Z,3.50
2018-12-13T18:12:22.308Z,2.30
2018-12-13T18:14:50.238Z,2.10
2018-12-13T18:17:18.018Z,2.20
2018-12-13T18:19:45.641Z,2.17
2018-12-13T18:22:14.897Z,1.80
2018-12-13T18:24:42.526Z,2.67
2018-12-13T18:27:10.117Z,2.47
2018-12-13T18:29:37.952Z,2.77
2018-12-13T18:32:05.639Z,2.23
2018-12-13T18:34:33.244Z,1.93
2018-12-13T18:37:02.009Z,2.40
2018-12-13T18:39:29.655Z,2.10
2018-12-13T18:41:57.337Z,2.20
2018-12-13T18:44:25.660Z,2.37
2018-12-13T18:46:53.220Z,2.10
2018-12-13T18:49:20.826Z,2.60
2018-12-13T18:51:48.394Z,2.20
2018-12-13T18:54:19.208Z,2.03
2018-12-13T18:56:50.760Z,2.30
2018-12-13T18:59:21.505Z,2.93
2018-12-13T19:01:49.306Z,2.10
2018-12-13T19:04:18.014Z,1.80
2018-12-13T19:06:45.813Z,1.70
2018-12-13T19:09:15.063Z,2.10
2018-12-13T19:11:43.336Z,1.53
2018-12-13T19:14:16.153Z,2.20
2018-12-13T19:16:47.855Z,2.27
2018-12-13T19:19:16.520Z,1.80
2018-12-13T19:21:44.346Z,2.00
2018-12-13T19:24:12.075Z,1.70
2018-12-13T19:26:39.840Z,2.20
2018-12-13T19:29:07.585Z,1.90
2018-12-13T19:31:35.301Z,1.83
2018-12-13T19:34:03.131Z,2.33
2018-12-13T19:36:32.044Z,1.93
2018-12-13T19:38:59.886Z,1.90
2018-12-13T19:41:27.786Z,2.13
2018-12-13T19:43:55.722Z,2.20
2018-12-13T19:46:23.612Z,2.03
2018-12-13T19:48:53.845Z,1.90
2018-12-13T19:51:21.609Z,2.60
2018-12-13T19:53:49.361Z,2.37
2018-12-13T19:56:17.098Z,2.00
2018-12-13T19:58:45.584Z,2.20
2018-12-13T20:01:13.453Z,1.80
2018-12-13T20:03:41.204Z,2.00
2018-12-13T20:06:09.204Z,2.27
2018-12-13T20:08:37.294Z,2.57
2018-12-13T20:11:11.709Z,1.90
2018-12-13T20:13:40.263Z,1.93
2018-12-13T20:16:08.078Z,1.97
2018-12-13T20:18:35.804Z,1.97
2018-12-13T20:21:03.644Z,2.03
2018-12-13T20:23:31.404Z,2.00
2018-12-13T20:26:02.457Z,2.27
2018-12-13T20:28:30.305Z,2.20
2018-12-13T20:30:58.962Z,2.40
2018-12-13T20:33:26.771Z,1.77
2018-12-13T20:35:54.541Z,2.07
2018-12-13T20:38:22.168Z,1.80
2018-12-13T20:40:49.776Z,2.10
2018-12-13T20:43:17.468Z,2.10
2018-12-13T20:45:46.048Z,2.10
2018-12-13T20:48:13.619Z,2.40
2018-12-13T20:50:41.194Z,1.77
2018-12-13T20:53:08.781Z,2.20
2018-12-13T20:55:36.376Z,2.23
2018-12-13T20:58:04.867Z,1.90
2018-12-13T21:00:34.559Z,1.80
2018-12-13T21:03:02.237Z,2.40
2018-12-13T21:05:29.893Z,1.93
2018-12-13T21:08:12.203Z,1.87
2018-12-13T21:10:40.094Z,2.13
2018-12-13T21:13:07.672Z,1.90
2018-12-13T21:15:35.544Z,1.53
2018-12-13T21:18:03.170Z,2.10
2018-12-13T21:20:30.855Z,2.40
2018-12-13T21:22:58.433Z,2.30
2018-12-13T21:25:26.931Z,3.17
2018-12-13T21:27:58.506Z,2.13
2018-12-13T21:30:26.130Z,2.00
2018-12-13T21:32:53.686Z,1.90
2018-12-13T21:35:21.294Z,2.10
2018-12-13T21:37:48.997Z,1.80
2018-12-13T21:40:16.603Z,1.53
2018-12-13T21:42:44.350Z,1.97
2018-12-13T21:45:12.003Z,2.20
2018-12-13T21:47:39.574Z,2.17
2018-12-13T21:50:07.848Z,1.80
2018-12-13T21:52:35.583Z,1.70
2018-12-13T21:55:03.325Z,2.40
2018-12-13T21:57:31.058Z,1.50
2018-12-13T21:59:58.675Z,2.03
2018-12-13T22:02:26.284Z,1.70
2018-12-13T22:04:53.928Z,1.97
2018-12-13T22:07:21.548Z,1.90
2018-12-13T22:09:49.137Z,1.50
2018-12-13T22:12:16.711Z,1.70
2018-12-13T22:14:44.426Z,2.10
2018-12-13T22:17:12.000Z,2.07
2018-12-13T22:19:39.596Z,2.00
2018-12-13T22:22:07.194Z,2.00
2018-12-13T22:24:34.761Z,1.60
2018-12-13T22:27:02.437Z,2.00
2018-12-13T22:29:30.117Z,1.50
2018-12-13T22:31:57.970Z,2.10
2018-12-13T22:34:25.815Z,1.70
2018-12-13T22:36:53.595Z,1.73
2018-12-13T22:39:21.208Z,1.60
2018-12-13T22:41:48.854Z,1.90
2018-12-13T22:44:16.474Z,1.70
2018-12-13T22:46:44.244Z,1.63
2018-12-13T22:49:11.794Z,1.80
2018-12-13T22:51:39.396Z,1.50
2018-12-13T22:54:07.194Z,1.40
2018-12-13T22:56:34.845Z,1.90
2018-12-13T22:59:02.542Z,1.70
2018-12-13T23:01:30.147Z,1.77
2018-12-13T23:03:57.814Z,2.20
2018-12-13T23:06:25.405Z,1.77
2018-12-13T23:08:52.971Z,1.60
2018-12-13T23:11:20.679Z,1.77
2018-12-13T23:13:48.252Z,2.10
2018-12-13T23:16:15.793Z,2.13
2018-12-13T23:18:43.382Z,1.90
2018-12-13T23:21:10.974Z,1.60
2018-12-13T23:23:38.518Z,1.60
2018-12-13T23:26:06.113Z,2.00
2018-12-13T23:28:33.698Z,1.60
2018-12-13T23:31:01.353Z,1.90
2018-12-13T23:33:28.948Z,1.70
2018-12-13T23:35:56.572Z,1.37
2018-12-13T23:38:24.266Z,2.57
2018-12-13T23:40:51.916Z,2.17
2018-12-13T23:43:19.499Z,1.70
2018-12-13T23:45:47.111Z,1.50
2018-12-13T23:48:14.700Z,1.80
2018-12-13T23:50:49.425Z,1.60
2018-12-13T23:53:17.034Z,1.77
2018-12-13T23:55:44.631Z,1.77
2018-12-13T23:58:12.375Z,1.83
